Time;durP1;ratioP1;P1;durP2;ratioP2;P2;SDS_P1;SDS_P2;PMS_P1;PMS_P2;Temp;Humidity;BMP_temperature;BMP_pressure;BME280_temperature;BME280_humidity;BME280_pressure;Samples;Min_cycle;Max_cycle;Signal;HPM_P1;HPM_P2
2021/04/25 00:00:33;;;;;;;6.85;4.00;;;;;;;4.99;57.35;100946.45;1697859;82;21126;-49
2021/04/25 00:03:01;;;;;;;8.13;3.98;;;;;;;4.98;57.42;100946.02;1695836;82;21118;-46
2021/04/25 00:05:29;;;;;;;6.53;3.90;;;;;;;4.98;57.34;100946.48;1693295;82;21162;-43
2021/04/25 00:07:56;;;;;;;6.33;3.27;;;;;;;4.96;57.32;100949.19;1701358;82;21145;-47
2021/04/25 00:10:24;;;;;;;5.08;2.90;;;;;;;4.95;57.26;100951.40;1697779;82;21991;-45
2021/04/25 00:12:51;;;;;;;6.83;3.37;;;;;;;4.95;57.18;100953.18;1693327;82;21127;-45
2021/04/25 00:15:23;;;;;;;6.83;4.00;;;;;;;4.92;57.18;100946.20;1700040;82;21211;-45
2021/04/25 00:17:50;;;;;;;6.80;4.22;;;;;;;4.91;57.14;100953.73;1690448;82;21176;-45
2021/04/25 00:20:19;;;;;;;7.95;4.20;;;;;;;4.90;57.18;100945.84;1699624;82;21439;-45
2021/04/25 00:22:47;;;;;;;8.40;4.80;;;;;;;4.87;57.27;100937.54;1703453;82;21109;-45
2021/04/25 00:25:14;;;;;;;7.05;4.15;;;;;;;4.86;57.44;100938.42;1708874;82;21189;-45
2021/04/25 00:27:43;;;;;;;6.30;4.10;;;;;;;4.85;57.65;100942.45;1706370;82;21612;-47
2021/04/25 00:30:13;;;;;;;6.80;3.70;;;;;;;4.84;57.62;100940.70;1710393;82;21141;-46
2021/04/25 00:32:41;;;;;;;6.58;4.08;;;;;;;4.82;57.61;100939.44;1706150;82;21584;-47
2021/04/25 00:35:10;;;;;;;10.10;4.50;;;;;;;4.80;57.94;100938.61;1711769;82;21106;-48
2021/04/25 00:37:39;;;;;;;6.28;3.83;;;;;;;4.79;57.85;100931.60;1710078;82;21535;-46
2021/04/25 00:40:09;;;;;;;8.13;4.65;;;;;;;4.78;57.68;100933.81;1713425;82;21161;-46
2021/04/25 00:42:36;;;;;;;6.08;3.80;;;;;;;4.77;57.62;100929.45;1706574;82;21137;-48
2021/04/25 00:45:12;;;;;;;6.95;4.45;;;;;;;4.76;57.57;100929.02;1711455;82;21153;-48
2021/04/25 00:47:44;;;;;;;6.83;4.28;;;;;;;4.76;57.44;100929.02;1708494;82;21134;-48
2021/04/25 00:50:15;;;;;;;8.38;3.98;;;;;;;4.74;57.34;100929.08;1715194;82;21165;-49
2021/04/25 00:52:44;;;;;;;5.00;3.08;;;;;;;4.73;57.34;100925.14;1710097;82;21117;-45
2021/04/25 00:55:14;;;;;;;6.03;3.35;;;;;;;4.72;57.53;100922.11;1706355;82;21551;-49
2021/04/25 00:57:43;;;;;;;4.85;2.90;;;;;;;4.70;57.57;100919.49;1712018;83;21141;-45
2021/04/25 01:00:12;;;;;;;5.47;3.08;;;;;;;4.70;57.65;100918.63;1705599;82;21150;-46
2021/04/25 01:02:40;;;;;;;4.92;3.10;;;;;;;4.68;57.70;100914.70;1712697;82;21534;-47
2021/04/25 01:05:11;;;;;;;5.45;3.20;;;;;;;4.68;57.74;100905.91;1709096;82;21166;-44
2021/04/25 01:07:38;;;;;;;5.42;3.17;;;;;;;4.64;57.71;100905.14;1709589;82;21161;-44
2021/04/25 01:10:07;;;;;;;4.90;3.22;;;;;;;4.62;57.71;100906.95;1703789;82;21161;-47
2021/04/25 01:12:35;;;;;;;9.03;3.83;;;;;;;4.60;57.93;100901.30;1709609;83;21557;-49
2021/04/25 01:15:04;;;;;;;7.50;4.15;;;;;;;4.59;57.86;100899.12;1711457;82;21400;-47
2021/04/25 01:17:33;;;;;;;8.05;5.00;;;;;;;4.58;57.94;100888.12;1710251;82;21170;-46
2021/04/25 01:20:01;;;;;;;9.25;4.22;;;;;;;4.58;58.04;100893.86;1706719;82;21884;-46
2021/04/25 01:22:29;;;;;;;8.50;5.03;;;;;;;4.55;58.06;100887.75;1702930;82;21176;-48
2021/04/25 01:24:56;;;;;;;13.03;9.38;;;;;;;4.55;58.10;100890.85;1696577;83;21162;-44
2021/04/25 01:27:24;;;;;;;11.38;6.55;;;;;;;4.53;58.00;100882.95;1704412;82;21118;-47
2021/04/25 01:29:51;;;;;;;9.65;5.03;;;;;;;4.52;57.99;100883.02;1699623;82;21685;-48
2021/04/25 01:32:19;;;;;;;9.05;4.92;;;;;;;4.50;58.08;100881.73;1670243;84;21145;-48
2021/04/25 01:34:47;;;;;;;7.60;3.92;;;;;;;4.52;58.16;100883.88;1634017;86;21210;-47
2021/04/25 01:37:14;;;;;;;7.47;4.25;;;;;;;4.53;58.18;100880.77;1696473;82;21166;-43
2021/04/25 01:39:42;;;;;;;5.95;3.15;;;;;;;4.54;58.32;100877.25;1695698;83;21157;-47
2021/04/25 01:42:10;;;;;;;7.15;3.35;;;;;;;4.54;58.24;100874.60;1690713;82;21175;-45
2021/04/25 01:44:37;;;;;;;4.60;3.42;;;;;;;4.54;58.26;100868.86;1692582;82;21181;-46
2021/04/25 01:47:05;;;;;;;5.65;3.72;;;;;;;4.55;58.36;100867.94;1699033;82;21150;-46
2021/04/25 01:49:34;;;;;;;5.78;3.72;;;;;;;4.55;58.35;100865.76;1695020;82;21150;-46
2021/04/25 01:52:02;;;;;;;5.40;3.33;;;;;;;4.55;58.35;100869.26;1696366;82;21115;-45
2021/04/25 01:54:30;;;;;;;6.05;3.52;;;;;;;4.55;58.30;100862.66;1699185;82;21157;-43
2021/04/25 01:56:58;;;;;;;6.37;3.90;;;;;;;4.55;58.23;100865.76;1692304;84;21165;-45
2021/04/25 01:59:26;;;;;;;6.20;3.70;;;;;;;4.55;58.16;100864.44;1700984;82;21127;-44
2021/04/25 02:01:53;;;;;;;8.05;5.03;;;;;;;4.55;58.21;100865.76;1695430;82;21154;-45
2021/04/25 02:04:21;;;;;;;12.88;6.30;;;;;;;4.53;58.26;100858.32;1694583;82;21166;-44
2021/04/25 02:06:49;;;;;;;14.05;7.78;;;;;;;4.52;58.28;100862.75;1680979;82;21170;-43
2021/04/25 02:09:16;;;;;;;13.50;6.97;;;;;;;4.50;58.30;100860.59;1697521;82;21142;-47
2021/04/25 02:11:44;;;;;;;11.40;6.33;;;;;;;4.49;58.22;100860.66;1691932;82;21161;-43
2021/04/25 02:14:11;;;;;;;7.83;5.12;;;;;;;4.47;58.24;100856.72;1700886;82;21538;-44
2021/04/25 02:16:39;;;;;;;7.45;4.28;;;;;;;4.48;58.32;100856.27;1693395;82;21118;-44
2021/04/25 02:19:07;;;;;;;10.38;4.80;;;;;;;4.48;58.34;100857.59;1700844;83;21304;-46
2021/04/25 02:21:34;;;;;;;8.55;4.50;;;;;;;4.48;58.49;100854.48;1695299;82;21146;-45
2021/04/25 02:24:03;;;;;;;7.45;4.30;;;;;;;4.48;58.73;100852.30;1675698;83;21171;-46
2021/04/25 02:26:31;;;;;;;7.45;4.72;;;;;;;4.47;58.88;100851.91;1691460;82;21119;-44
2021/04/25 02:28:59;;;;;;;5.17;3.80;;;;;;;4.47;59.03;100851.91;1697572;83;21134;-44
2021/04/25 02:31:26;;;;;;;7.12;3.92;;;;;;;4.46;59.14;100857.64;1694109;82;21162;-42
2021/04/25 02:33:54;;;;;;;8.53;4.12;;;;;;;4.44;59.14;100861.23;1694697;82;21166;-42
2021/04/25 02:36:22;;;;;;;8.60;5.12;;;;;;;4.42;59.01;100855.13;1691632;82;21134;-42
2021/04/25 02:38:50;;;;;;;7.40;4.67;;;;;;;4.40;58.89;100855.16;1694426;82;21458;-48
2021/04/25 02:41:18;;;;;;;9.43;4.97;;;;;;;4.42;58.95;100857.77;1692047;82;21604;-40
2021/04/25 02:43:45;;;;;;;8.85;5.28;;;;;;;4.41;58.99;100847.66;1689469;82;21154;-43
2021/04/25 02:46:13;;;;;;;9.28;5.42;;;;;;;4.44;59.06;100849.35;1689934;82;21150;-44
2021/04/25 02:48:41;;;;;;;8.50;4.72;;;;;;;4.45;59.10;100847.11;1693344;82;21169;-47
2021/04/25 02:51:08;;;;;;;8.90;4.60;;;;;;;4.45;59.09;100847.97;1691431;82;21146;-45
2021/04/25 02:53:36;;;;;;;10.75;4.80;;;;;;;4.49;59.17;100852.73;1690472;82;21126;-45
2021/04/25 02:56:04;;;;;;;6.45;4.33;;;;;;;4.50;59.16;100849.17;1696401;82;21919;-46
2021/04/25 02:58:32;;;;;;;8.88;5.55;;;;;;;4.50;59.05;100853.99;1699447;82;21131;-41
2021/04/25 03:01:00;;;;;;;8.95;5.35;;;;;;;4.52;58.71;100850.00;1693151;82;21150;-42
2021/04/25 03:03:27;;;;;;;7.92;5.00;;;;;;;4.52;58.64;100856.61;1693946;82;21150;-45
2021/04/25 03:05:56;;;;;;;7.47;5.00;;;;;;;4.55;58.66;100856.52;1697703;83;21145;-44
2021/04/25 03:08:23;;;;;;;8.30;5.30;;;;;;;4.59;58.64;100852.89;1694514;82;21470;-43
2021/04/25 03:10:51;;;;;;;9.95;5.22;;;;;;;4.62;58.53;100861.18;1694287;82;21142;-45
2021/04/25 03:13:19;;;;;;;9.50;4.78;;;;;;;4.63;58.60;100866.41;1662144;84;21157;-44
2021/04/25 03:15:46;;;;;;;7.22;4.80;;;;;;;4.65;58.69;100858.45;1662260;84;21162;-47
2021/04/25 03:18:14;;;;;;;8.60;4.72;;;;;;;4.68;58.71;100855.25;1654693;84;21143;-45
2021/04/25 03:20:41;;;;;;;7.65;4.35;;;;;;;4.73;58.81;100852.48;1659076;84;21569;-45
2021/04/25 03:23:09;;;;;;;9.03;5.37;;;;;;;4.76;58.75;100845.36;1662740;84;21182;-44
2021/04/25 03:25:36;;;;;;;7.30;5.05;;;;;;;4.79;58.73;100849.69;1678402;84;21164;-44
2021/04/25 03:28:05;;;;;;;7.15;4.50;;;;;;;4.83;58.81;100841.20;1661384;85;21609;-44
2021/04/25 03:30:32;;;;;;;8.83;4.85;;;;;;;4.83;58.52;100843.84;1646284;85;21619;-44
2021/04/25 03:33:00;;;;;;;6.97;4.65;;;;;;;4.83;58.54;100850.45;1677068;84;21121;-46
2021/04/25 03:35:28;;;;;;;6.33;3.87;;;;;;;4.85;58.53;100842.89;1673002;84;21181;-46
2021/04/25 03:37:56;;;;;;;9.75;6.05;;;;;;;4.86;58.39;100849.89;1662963;85;21658;-44
2021/04/25 03:40:24;;;;;;;11.95;7.42;;;;;;;4.87;58.24;100845.50;1678763;84;21161;-44
2021/04/25 03:42:51;;;;;;;11.28;8.00;;;;;;;4.86;57.99;100839.32;1670932;84;21197;-45
2021/04/25 03:45:20;;;;;;;13.65;6.40;;;;;;;4.88;58.05;100836.19;1677803;84;21157;-45
2021/04/25 03:47:52;;;;;;;12.35;7.00;;;;;;;4.92;58.06;100843.59;1668605;84;21585;-43
2021/04/25 03:50:22;;;;;;;9.35;5.78;;;;;;;4.93;58.08;100840.87;1680241;84;21145;-45
2021/04/25 03:52:50;;;;;;;10.75;5.10;;;;;;;4.96;58.02;100841.24;1647908;85;21161;-44
2021/04/25 03:55:18;;;;;;;6.67;4.37;;;;;;;4.98;58.07;100838.96;1671285;84;21125;-44
2021/04/25 03:57:45;;;;;;;6.08;4.55;;;;;;;5.01;58.19;100841.11;1670207;84;21165;-45
2021/04/25 04:00:14;;;;;;;6.42;3.70;;;;;;;5.05;58.13;100842.77;1676450;84;21140;-47
2021/04/25 04:02:42;;;;;;;6.92;4.30;;;;;;;5.07;58.25;100837.84;1664655;84;21145;-49
2021/04/25 04:05:11;;;;;;;6.12;4.10;;;;;;;5.09;58.49;100837.77;1676744;84;21183;-41
2021/04/25 04:07:39;;;;;;;5.47;3.65;;;;;;;5.13;58.63;100839.42;1673882;84;21577;-45
2021/04/25 04:10:07;;;;;;;6.28;4.30;;;;;;;5.16;58.46;100841.97;1679222;84;21707;-47
2021/04/25 04:12:35;;;;;;;6.35;3.60;;;;;;;5.20;58.42;100844.94;1677058;84;21169;-44
2021/04/25 04:15:05;;;;;;;10.43;4.67;;;;;;;5.22;58.46;100840.48;1657623;85;21194;-44
2021/04/25 04:17:32;;;;;;;9.05;5.15;;;;;;;5.27;58.30;100845.62;1660981;84;21170;-44
2021/04/25 04:20:00;;;;;;;9.93;5.12;;;;;;;5.29;58.02;100842.03;1644405;85;21164;-45
2021/04/25 04:22:28;;;;;;;10.13;5.75;;;;;;;5.34;57.95;100844.50;1640869;86;21137;-45
2021/04/25 04:24:56;;;;;;;7.53;4.33;;;;;;;5.35;57.75;100839.17;1663521;84;21177;-45
2021/04/25 04:27:23;;;;;;;7.37;4.55;;;;;;;5.36;57.64;100838.25;1658108;84;21150;-45
2021/04/25 04:29:51;;;;;;;6.12;3.95;;;;;;;5.39;57.64;100841.26;1674585;84;22231;-45
2021/04/25 04:32:18;;;;;;;6.37;4.20;;;;;;;5.40;57.74;100835.93;1638944;85;21666;-42
2021/04/25 04:34:46;;;;;;;6.22;3.25;;;;;;;5.43;57.57;100834.50;1659667;84;21186;-44
2021/04/25 04:37:14;;;;;;;5.60;3.20;;;;;;;5.48;57.29;100826.43;1658146;84;21177;-42
2021/04/25 04:39:41;;;;;;;6.42;4.03;;;;;;;5.55;57.25;100832.40;1678682;84;21157;-44
2021/04/25 04:42:09;;;;;;;6.92;4.17;;;;;;;5.60;57.07;100825.18;1703980;82;21175;-45
2021/04/25 04:44:37;;;;;;;5.62;3.65;;;;;;;5.66;57.11;100821.46;1705429;83;21158;-44
2021/04/25 04:47:04;;;;;;;6.78;3.62;;;;;;;5.71;56.66;100813.77;1701505;83;21157;-42
2021/04/25 04:49:32;;;;;;;6.35;3.65;;;;;;;5.76;56.35;100812.30;1678102;84;21173;-44
2021/04/25 04:52:00;;;;;;;5.25;3.40;;;;;;;5.79;56.30;100809.08;1657447;85;21177;-47
2021/04/25 04:54:27;;;;;;;5.05;3.85;;;;;;;5.88;56.29;100808.39;1651410;84;21521;-43
2021/04/25 04:56:55;;;;;;;6.28;3.77;;;;;;;5.91;56.12;100803.84;1657681;84;21187;-46
2021/04/25 04:59:23;;;;;;;5.80;3.90;;;;;;;5.97;55.95;100808.09;1663990;85;21178;-43
2021/04/25 05:01:51;;;;;;;6.10;3.77;;;;;;;6.01;55.91;100811.05;1674385;84;21173;-46
2021/04/25 05:04:18;;;;;;;6.67;3.33;;;;;;;6.07;55.74;100808.17;1659878;84;21194;-45
2021/04/25 05:06:46;;;;;;;5.95;3.62;;;;;;;6.13;55.68;100802.69;1678281;84;21125;-43
2021/04/25 05:09:14;;;;;;;8.40;4.50;;;;;;;6.20;55.37;100803.31;1660697;84;21582;-46
2021/04/25 05:11:41;;;;;;;8.83;4.60;;;;;;;6.27;55.85;100806.16;1661382;84;21182;-41
2021/04/25 05:14:09;;;;;;;5.83;3.72;;;;;;;6.32;55.11;100809.50;1700302;82;21164;-44
2021/04/25 05:16:37;;;;;;;8.70;5.28;;;;;;;6.39;55.56;100815.45;1702388;83;21177;-44
2021/04/25 05:19:05;;;;;;;7.28;4.55;;;;;;;6.44;55.16;100803.77;1705342;83;21122;-44
2021/04/25 05:21:32;;;;;;;7.53;4.92;;;;;;;6.48;54.89;100798.77;1705346;82;21153;-45
2021/04/25 05:24:00;;;;;;;6.28;4.55;;;;;;;6.54;54.86;100802.98;1706887;82;21173;-45
2021/04/25 05:26:28;;;;;;;8.00;4.60;;;;;;;6.60;54.34;100804.53;1701516;82;21153;-42
2021/04/25 05:28:59;;;;;;;5.83;4.33;;;;;;;6.63;54.34;100804.44;1704714;82;21150;-45
2021/04/25 05:31:32;;;;;;;8.73;4.28;;;;;;;6.68;54.00;100810.44;1698565;82;21211;-45
2021/04/25 05:34:00;;;;;;;6.37;4.70;;;;;;;6.71;53.75;100806.34;1698373;82;21133;-47
2021/04/25 05:36:28;;;;;;;6.17;4.20;;;;;;;6.73;54.03;100799.20;1699309;83;21142;-45
2021/04/25 05:38:56;;;;;;;5.83;3.37;;;;;;;6.79;54.08;100792.80;1692628;82;21154;-46
2021/04/25 05:41:24;;;;;;;6.67;4.22;;;;;;;6.86;54.25;100803.11;1701400;83;21125;-45
2021/04/25 05:43:52;;;;;;;7.03;4.40;;;;;;;6.92;54.21;100794.91;1697356;83;21649;-47
2021/04/25 05:46:20;;;;;;;6.15;4.03;;;;;;;7.02;54.03;100801.19;1704371;82;21182;-45
2021/04/25 05:48:49;;;;;;;5.22;3.58;;;;;;;7.08;53.93;100799.17;1694076;82;21142;-45
2021/04/25 05:51:17;;;;;;;4.47;3.50;;;;;;;7.18;53.87;100799.66;1698206;82;21150;-47
2021/04/25 05:53:45;;;;;;;7.37;3.62;;;;;;;7.27;53.66;100802.42;1709765;82;21158;-47
2021/04/25 05:56:13;;;;;;;4.72;3.47;;;;;;;7.35;52.96;100802.50;1701746;82;21149;-44
2021/04/25 05:58:41;;;;;;;5.12;3.20;;;;;;;7.41;52.92;100801.86;1699030;82;21166;-43
2021/04/25 06:01:09;;;;;;;6.50;3.83;;;;;;;7.46;53.08;100803.42;1695360;82;21161;-44
2021/04/25 06:03:37;;;;;;;6.65;4.50;;;;;;;7.54;52.56;100799.98;1695619;82;21586;-43
2021/04/25 06:06:05;;;;;;;5.58;3.72;;;;;;;7.63;52.70;100801.85;1696696;82;21133;-45
2021/04/25 06:08:33;;;;;;;5.12;4.45;;;;;;;7.70;52.67;100800.20;1700274;82;21942;-43
2021/04/25 06:11:00;;;;;;;7.15;3.98;;;;;;;7.78;51.75;100796.77;1701113;82;21563;-41
2021/04/25 06:13:29;;;;;;;5.87;3.40;;;;;;;7.87;51.65;100797.33;1693504;82;21495;-45
2021/04/25 06:15:56;;;;;;;6.55;3.47;;;;;;;7.93;52.08;100797.91;1693928;82;21150;-45
2021/04/25 06:18:24;;;;;;;5.85;3.87;;;;;;;8.11;51.95;100797.58;1667481;84;21161;-44
2021/04/25 06:20:52;;;;;;;5.10;3.80;;;;;;;8.11;51.95;100797.58;1700480;82;21145;-45
2021/04/25 06:23:20;;;;;;;6.17;3.45;;;;;;;8.29;51.46;100803.03;1686217;83;21652;-46
2021/04/25 06:25:48;;;;;;;6.12;4.10;;;;;;;8.29;51.46;100803.03;1702049;83;21415;-45
2021/04/25 06:28:15;;;;;;;6.15;3.87;;;;;;;8.35;50.74;100800.98;1703367;82;21158;-45
2021/04/25 06:30:43;;;;;;;7.78;3.90;;;;;;;8.44;50.68;100804.60;1696579;82;21146;-45
2021/04/25 06:33:11;;;;;;;5.78;3.72;;;;;;;8.50;50.27;100803.93;1698190;82;21146;-45
2021/04/25 06:35:40;;;;;;;10.13;4.17;;;;;;;8.55;50.47;100805.91;1701192;82;21181;-45
2021/04/25 06:38:07;;;;;;;6.35;4.10;;;;;;;8.58;50.34;100811.09;1697349;82;21167;-44
2021/04/25 06:40:36;;;;;;;6.40;3.55;;;;;;;8.65;50.68;100802.77;1699604;82;21149;-43
2021/04/25 06:43:05;;;;;;;9.73;4.70;;;;;;;8.74;50.64;100796.63;1696961;82;21586;-43
2021/04/25 06:45:36;;;;;;;7.55;4.05;;;;;;;8.83;50.50;100801.53;1696519;82;21137;-42
2021/04/25 06:48:05;;;;;;;6.87;4.53;;;;;;;8.92;49.66;100797.56;1698155;82;22408;-44
2021/04/25 06:50:33;;;;;;;8.30;4.55;;;;;;;8.98;49.56;100799.95;1695409;82;21604;-45
2021/04/25 06:53:00;;;;;;;6.50;4.60;;;;;;;9.00;49.01;100802.08;1699447;82;21558;-41
2021/04/25 06:55:28;;;;;;;8.50;4.83;;;;;;;9.00;48.78;100800.28;1698065;83;21154;-42
2021/04/25 06:57:56;;;;;;;4.90;3.50;;;;;;;9.03;48.71;100802.79;1700069;82;21150;-46
2021/04/25 07:00:24;;;;;;;5.75;3.98;;;;;;;9.06;48.77;100805.77;1698101;82;21187;-46
2021/04/25 07:02:54;;;;;;;7.70;3.95;;;;;;;9.17;48.01;100802.59;1698378;83;21162;-45
2021/04/25 07:05:23;;;;;;;8.23;4.87;;;;;;;9.17;48.01;100802.59;1694282;82;21132;-45
2021/04/25 07:07:50;;;;;;;5.55;3.42;;;;;;;9.24;47.36;100803.56;1700145;82;21174;-46
2021/04/25 07:10:18;;;;;;;5.42;3.55;;;;;;;9.30;47.89;100803.28;1708496;82;21522;-42
2021/04/25 07:12:47;;;;;;;6.47;3.52;;;;;;;9.36;48.53;100802.12;1698513;82;21130;-44
2021/04/25 07:15:14;;;;;;;8.45;3.98;;;;;;;9.48;48.08;100805.99;1697067;82;21558;-44
2021/04/25 07:17:42;;;;;;;5.55;3.40;;;;;;;9.48;48.08;100805.99;1691155;82;21169;-44
2021/04/25 07:20:12;;;;;;;7.47;3.67;;;;;;;9.62;47.38;100794.17;1695194;82;21589;-45
2021/04/25 07:22:40;;;;;;;5.03;2.92;;;;;;;9.71;47.41;100803.52;1692556;83;21554;-46
2021/04/25 07:25:09;;;;;;;4.65;2.92;;;;;;;9.71;47.41;100803.52;1695996;82;21174;-43
2021/04/25 07:27:37;;;;;;;6.25;3.95;;;;;;;9.78;47.10;100814.27;1701909;82;21928;-47
2021/04/25 07:30:08;;;;;;;5.87;4.15;;;;;;;9.85;46.66;100794.38;1693451;82;21182;-48
2021/04/25 07:32:37;;;;;;;7.28;4.05;;;;;;;9.89;45.34;100809.25;1716046;82;21145;-46
2021/04/25 07:35:06;;;;;;;5.30;3.55;;;;;;;9.89;45.42;100798.59;1711698;82;21137;-41
2021/04/25 07:37:35;;;;;;;4.80;3.45;;;;;;;9.92;45.72;100806.42;1709118;83;21150;-42
2021/04/25 07:40:05;;;;;;;5.67;3.75;;;;;;;9.97;45.13;100805.72;1675931;84;21584;-43
2021/04/25 07:42:33;;;;;;;5.50;4.00;;;;;;;10.05;45.50;100795.15;1713069;82;21543;-44
2021/04/25 07:45:03;;;;;;;5.75;3.72;;;;;;;10.14;45.10;100796.87;1709499;82;21569;-48
2021/04/25 07:47:30;;;;;;;5.62;3.37;;;;;;;10.24;45.01;100787.08;1708952;82;21157;-47
2021/04/25 07:49:58;;;;;;;4.03;2.87;;;;;;;10.33;45.32;100789.27;1715313;82;21149;-46
2021/04/25 07:52:26;;;;;;;5.37;3.70;;;;;;;10.41;45.51;100785.76;1710547;82;21597;-44
2021/04/25 07:54:55;;;;;;;5.80;3.42;;;;;;;10.47;44.39;100785.41;1708936;82;21565;-45
2021/04/25 07:57:23;;;;;;;7.30;3.22;;;;;;;10.46;43.53;100790.81;1708806;82;21469;-47
2021/04/25 07:59:51;;;;;;;6.40;3.55;;;;;;;10.46;43.44;100786.37;1707014;82;21157;-45
2021/04/25 08:02:20;;;;;;;5.60;3.80;;;;;;;10.47;42.91;100784.56;1705856;82;21185;-46
2021/04/25 08:04:51;;;;;;;5.33;3.40;;;;;;;10.47;43.26;100777.42;1712864;82;21141;-48
2021/04/25 08:07:20;;;;;;;6.30;3.20;;;;;;;10.47;43.49;100785.89;1707928;82;21126;-45
2021/04/25 08:09:47;;;;;;;5.12;3.10;;;;;;;10.50;42.53;100780.39;1711391;82;21133;-45
2021/04/25 08:12:16;;;;;;;7.67;3.45;;;;;;;10.50;41.95;100778.58;1710128;82;21185;-45
2021/04/25 08:14:45;;;;;;;6.47;3.08;;;;;;;10.51;41.97;100777.66;1711075;82;21137;-48
2021/04/25 08:17:12;;;;;;;5.92;3.55;;;;;;;10.51;41.87;100777.66;1712225;82;21161;-46
2021/04/25 08:19:40;;;;;;;5.65;3.10;;;;;;;10.55;42.06;100774.34;1711861;82;21150;-45
2021/04/25 08:22:08;;;;;;;3.90;2.42;;;;;;;10.58;41.52;100764.39;1707318;82;21149;-45
2021/04/25 08:28:07;;;;;;;4.75;3.17;;;;;;;10.65;40.55;100756.90;1654256;85;21225;-45
2021/04/25 08:30:37;;;;;;;6.55;2.83;;;;;;;10.68;41.43;100757.20;1652775;85;21250;-46
2021/04/25 08:33:14;;;;;;;5.10;3.02;;;;;;;10.74;40.80;100759.08;1811439;77;22682;-49
2021/04/25 08:35:47;;;;;;;5.58;3.15;;;;;;;10.73;41.59;100755.14;1778455;78;21145;-46
2021/04/25 08:38:40;;;;;;;5.75;2.77;;;;;;;10.81;41.32;100756.46;1810697;78;21137;-45
2021/04/25 08:41:30;;;;;;;5.35;3.70;;;;;;;10.92;41.58;100751.00;1812030;78;21287;-45
2021/04/25 08:44:02;;;;;;;8.40;4.50;;;;;;;11.02;40.69;100746.39;1810115;78;21132;-46
2021/04/25 08:46:31;;;;;;;6.55;3.67;;;;;;;11.07;40.94;100748.81;1815881;78;21680;-45
2021/04/25 08:48:59;;;;;;;6.95;3.20;;;;;;;11.10;41.04;100746.44;1808668;78;21704;-45
2021/04/25 08:51:27;;;;;;;5.00;3.37;;;;;;;11.15;41.36;100741.22;1815040;78;21834;-43
2021/04/25 08:53:55;;;;;;;9.35;3.95;;;;;;;11.22;41.31;100741.74;1810775;78;21152;-44
2021/04/25 08:56:22;;;;;;;6.62;4.22;;;;;;;11.28;41.14;100747.20;1814367;78;21141;-44
2021/04/25 08:58:52;;;;;;;5.55;3.70;;;;;;;11.32;41.18;100744.75;1810881;78;21290;-47
2021/04/25 09:01:21;;;;;;;8.33;3.80;;;;;;;11.36;41.46;100743.13;1811039;78;21382;-43
2021/04/25 09:03:52;;;;;;;5.08;3.27;;;;;;;11.43;40.79;100740.97;1809746;78;21568;-45
2021/04/25 09:06:21;;;;;;;6.05;3.60;;;;;;;11.45;40.27;100742.61;1807712;78;21120;-47
2021/04/25 09:08:53;;;;;;;4.00;2.67;;;;;;;11.43;39.94;100731.15;1813890;78;21125;-48
2021/04/25 09:11:33;;;;;;;5.47;2.60;;;;;;;11.42;38.56;100717.42;1812919;78;21277;-45
2021/04/25 09:14:19;;;;;;;5.87;3.40;;;;;;;11.43;39.73;100721.80;1807930;78;21545;-45
2021/04/25 09:17:01;;;;;;;5.83;3.05;;;;;;;11.48;40.45;100726.40;1812102;78;21263;-46
2021/04/25 09:19:56;;;;;;;4.60;2.60;;;;;;;11.60;40.74;100726.16;1810431;78;21410;-45
2021/04/25 09:22:44;;;;;;;4.22;2.60;;;;;;;11.74;39.16;100718.66;1807761;78;21621;-42
2021/04/25 09:25:14;;;;;;;4.95;2.72;;;;;;;11.86;38.39;100721.08;1809053;78;21125;-45
2021/04/25 09:27:45;;;;;;;4.40;2.87;;;;;;;11.96;38.40;100721.42;1811278;78;21123;-47
2021/04/25 09:30:17;;;;;;;4.87;3.20;;;;;;;12.05;38.31;100715.53;1810173;78;21098;-47
2021/04/25 09:32:45;;;;;;;3.85;2.87;;;;;;;12.11;36.79;100712.47;1754991;78;21095;-45
2021/04/25 09:35:19;;;;;;;4.72;2.52;;;;;;;12.06;36.50;100703.39;1781858;78;21173;-46
2021/04/25 09:37:48;;;;;;;5.62;2.83;;;;;;;11.98;37.62;100702.16;1779850;78;21158;-48
2021/04/25 09:40:21;;;;;;;4.47;2.87;;;;;;;12.00;38.38;100707.79;1779062;78;21148;-46
2021/04/25 09:43:07;;;;;;;3.17;2.65;;;;;;;12.06;39.05;100715.90;1786425;78;21174;-46
2021/04/25 09:45:50;;;;;;;5.37;2.80;;;;;;;12.10;38.96;100720.12;1784616;78;21296;-47
2021/04/25 09:52:05;;;;;;;4.42;2.75;;;;;;;12.17;40.48;100728.16;1802718;78;22691;-46
2021/04/25 09:54:34;;;;;;;5.42;3.83;;;;;;;12.12;40.71;100724.90;1718068;81;21633;-46
2021/04/25 09:57:02;;;;;;;6.35;3.08;;;;;;;12.09;40.85;100713.89;1734331;81;21161;-46
2021/04/25 09:59:31;;;;;;;4.33;2.70;;;;;;;12.09;40.82;100717.05;1720607;81;21614;-45
2021/04/25 10:02:07;;;;;;;;;;;;;;;12.11;40.94;100716.00;1727779;81;21549;-42
2021/04/25 10:04:37;;;;;;;6.75;3.00;;;;;;;12.13;40.33;100718.59;1721299;82;20526;-47
2021/04/25 10:07:10;;;;;;;2.95;2.33;;;;;;;12.12;40.53;100720.41;1726258;82;21177;-48
2021/04/25 10:09:43;;;;;;;5.03;2.83;;;;;;;12.04;41.08;100721.81;1721374;81;21636;-45
2021/04/25 10:12:11;;;;;;;3.55;2.60;;;;;;;12.02;41.75;100727.72;1725585;82;21137;-48
2021/04/25 10:14:39;;;;;;;4.08;2.90;;;;;;;12.05;42.44;100720.88;1741342;81;21137;-43
2021/04/25 10:17:11;;;;;;;5.47;2.58;;;;;;;12.07;43.08;100718.95;1715869;81;21565;-47
2021/04/25 10:19:43;;;;;;;5.17;2.77;;;;;;;12.11;42.86;100725.83;1698555;82;21169;-42
2021/04/25 10:22:11;;;;;;;8.00;3.30;;;;;;;12.13;42.61;100724.78;1715425;82;21711;-54
2021/04/25 10:24:39;;;;;;;5.35;2.58;;;;;;;12.17;42.88;100715.23;1720286;81;21149;-43
2021/04/25 10:27:12;;;;;;;4.33;2.95;;;;;;;12.20;43.23;100715.08;1716008;82;21200;-47
2021/04/25 10:29:51;;;;;;;5.08;3.37;;;;;;;12.25;42.31;100714.31;1719101;82;21165;-44
2021/04/25 10:32:20;;;;;;;5.22;3.05;;;;;;;12.26;42.47;100724.04;1707837;81;21143;-44
2021/04/25 10:34:50;;;;;;;5.65;2.65;;;;;;;12.28;41.98;100727.00;1700427;82;21164;-45
2021/04/25 10:37:18;;;;;;;4.13;2.93;;;;;;;12.30;41.82;100732.27;1674962;83;21160;-42
2021/04/25 10:39:55;;;;;;;4.97;3.05;;;;;;;12.31;42.02;100726.80;1702864;82;21868;-44
2021/04/25 10:42:26;;;;;;;5.08;3.17;;;;;;;12.33;42.39;100726.23;1702380;83;21145;-44
2021/04/25 10:45:18;;;;;;;4.40;2.67;;;;;;;12.37;43.01;100726.04;1677927;83;21711;-47
2021/04/25 10:48:32;;;;;;;4.40;3.15;;;;;;;12.42;42.93;100723.45;1689855;83;21632;-46
2021/04/25 10:51:48;;;;;;;4.62;2.80;;;;;;;12.46;42.56;100728.16;1682882;83;21343;-43
2021/04/25 10:54:16;;;;;;;6.05;3.35;;;;;;;12.44;42.06;100724.23;1681357;83;21174;-42
2021/04/25 10:56:45;;;;;;;4.95;3.20;;;;;;;12.41;42.18;100723.09;1684659;83;21166;-43
2021/04/25 10:59:24;;;;;;;4.37;2.62;;;;;;;12.35;42.16;100720.80;1629918;83;21156;-47
2021/04/25 11:01:52;;;;;;;4.78;3.27;;;;;;;12.32;42.36;100727.20;1711189;82;21149;-44
2021/04/25 11:04:58;;;;;;;3.50;2.30;;;;;;;12.27;42.33;100732.43;1681062;83;21196;-45
2021/04/25 11:07:38;;;;;;;5.95;3.10;;;;;;;12.23;42.98;100728.25;1686305;84;21460;-45
2021/04/25 11:10:07;;;;;;;4.72;3.42;;;;;;;12.22;42.96;100727.39;1745359;81;21969;-43
2021/04/25 11:12:39;;;;;;;6.37;3.33;;;;;;;12.18;42.67;100723.66;1744614;81;21628;-45
2021/04/25 11:15:09;;;;;;;3.67;2.72;;;;;;;12.13;42.64;100726.13;1743383;81;21143;-43
2021/04/25 11:17:36;;;;;;;4.95;3.30;;;;;;;12.09;42.54;100722.39;1746922;80;21142;-42
2021/04/25 11:20:29;;;;;;;4.58;2.80;;;;;;;12.07;43.07;100713.59;1746426;81;21187;-41
2021/04/25 11:22:58;;;;;;;4.92;3.50;;;;;;;12.04;43.11;100707.11;1689921;83;21202;-41
2021/04/25 11:25:29;;;;;;;5.20;3.25;;;;;;;11.98;43.13;100708.83;1662423;84;21727;-41
2021/04/25 11:28:03;;;;;;;5.08;2.80;;;;;;;11.96;42.59;100703.56;1802671;78;23535;-42
2021/04/25 11:30:41;;;;;;;4.10;3.12;;;;;;;11.90;43.35;100711.97;1778281;79;21686;-41
2021/04/25 11:33:34;;;;;;;4.42;3.40;;;;;;;11.89;43.35;100719.13;1738478;80;21457;-42
2021/04/25 11:36:35;;;;;;;6.00;3.17;;;;;;;11.89;42.62;100729.83;1722340;82;21169;-43
2021/04/25 11:39:04;;;;;;;4.47;3.35;;;;;;;11.83;42.87;100716.78;1717776;82;21927;-42
2021/04/25 11:41:33;;;;;;;6.10;3.60;;;;;;;11.78;44.83;100724.69;1724500;81;21133;-45
2021/04/25 11:44:00;;;;;;;5.87;3.22;;;;;;;11.69;45.27;100720.29;1724390;82;21141;-44
2021/04/25 11:46:35;;;;;;;5.95;3.33;;;;;;;11.68;45.88;100717.22;1721395;83;21153;-43
2021/04/25 11:49:05;;;;;;;7.03;3.85;;;;;;;11.65;45.45;100713.40;1724081;82;21149;-42